Barcroft Research Lab Weather observations

Data are for 10 minute period ending at time listed.
 Day   Time   Solar   Ave.   Ave.  Ave.  Vector  Std.   Max.    Baro.    
  of    of     Rad.   Air    Rel.  Wind   Wind   Dev.   Wind   Press.    
Year   Day            Temp.  Hum.  Speed  Dir.   Dir.   Gust            
2014   (PST)  Kw/m2    F      %     mph   deg.   deg.    mph     mb.    
------------------------------------------------------------------------
 261   10:10     876   49.3    30    8.9   224    -99    17.8   644.70  
 261   10:20     879   48.7    32   11.4   241    -99    20.4   644.70  
 261   10:30     883   49.4    32    9.5   232    -99    20.4   644.70  
 261   10:40     884   49.0    33   11.9   244    -99    19.1   644.70  
 261   10:50     884   48.7    32   10.6   247    -99    21.9   644.70  
 261   11:00     881   48.8    32    9.3   244    -99    17.1   644.70  
 261   11:10     877   49.6    30    8.9   234    -99    20.1   644.60  
 261   11:20     869   49.5    30    7.4   244    -99    15.1   644.60  
 261   11:30     863   50.2    30    8.2   226    -99    22.4   644.60  
 261   11:40     852   50.1    30    8.8   234    -99    16.1   644.60  
 261   11:50     840   49.5    30    6.0   242    -99    15.8   644.60  
 261   12:00     827   50.1    29    6.0   246    -99    12.1   644.60  
 261   12:10     810   49.5    30    5.2   220    -99    15.2   644.50  
 261   12:20     794   50.3    29    6.3   269    -99    13.7   644.50  
 261   12:30     776   52.4    28    7.0   156    -99    11.6   644.50  
 261   12:40     757   51.6    28    6.9   250    -99    15.9   644.50  
 261   12:50     736   51.5    29    4.7   272    -99    12.0   644.50  
 261   13:00     711   51.5    28    6.5   224    -99    22.0   644.50  
 261   13:10     687   51.0    28    6.8   238    -99    14.5   644.30  
 261   13:20     662   50.7    28    5.5   252    -99    11.2   644.30  
 261   13:30     637   51.3    27    4.3   206    -99     9.4   644.30  
 261   13:40     610   52.0    27    3.8   241    -99    13.3   644.30  
 261   13:50     580   51.2    27    5.3   225    -99    27.5   644.30  
 261   14:00     550   51.3    28    7.3   191    -99    18.0   644.30  
 261   14:10     518   50.7    28    6.1   229    -99    12.9   644.20  
 261   14:20     485   50.6    28    6.6   184    -99    13.5   644.20  
 261   14:30     453   51.4    27    2.8   207    -99     8.6   644.20  
 261   14:40     419   51.7    29    5.3   246    -99    12.5   644.20  
 261   14:50     384   50.9    29    5.5   194    -99    13.6   644.20  
 261   15:00     349   50.5    29    3.9   183    -99     8.0   644.20  
 261   15:10     314   50.7    30    5.3   174    -99    12.2   644.20  
 261   15:20     249   49.8    30    4.8   204    -99     9.6   644.20  
 261   15:30      17   47.7    33    4.2   186    -99    10.2   644.20  
 261   15:40      16   46.7    34    4.1   184    -99     9.5   644.20  
 261   15:50      16   46.4    36    6.3   181    -99    12.6   644.20  
 261   16:00      17   46.1    37    5.1   213    -99     9.4   644.20  
 261   16:10      24   45.8    37    3.2   213    -99     9.4   644.10  
 261   16:20      30   45.8    39    3.6   201    -99    10.3   644.10  
 261   16:30      29   45.7    42    5.3   177    -99    10.7   644.10  
 261   16:40      20   44.9    48    6.0   156    -99    11.1   644.10  
 261   16:50       9   44.2    49    6.4   154    -99    10.3   644.10  
 261   17:00       1   43.6    50    4.6   155    -99     7.5   644.10  
 261   17:10       0   43.4    52    5.0   151    -99     9.3   644.30  
 261   17:20       0   43.1    52    4.3   158    -99     8.1   644.30  
 261   17:30       0   42.5    52    3.5   160    -99     6.5   644.30  
 261   17:40       0   41.8    54    4.2   138    -99     8.0   644.30  
 261   17:50       0   41.3    55    4.2   130    -99     7.5   644.30  
 261   18:00       0   40.9    56    2.7   143    -99     5.6   644.30  
 261   18:10       0   40.4    58    4.1   138    -99     6.9   644.60  
 261   18:20       0   39.9    60    4.0   130    -99     7.7   644.60  
 261   18:30       0   39.5    62    4.0   149    -99     8.5   644.60  
 261   18:40       0   39.7    63    4.2   196    -99     9.1   644.60  
 261   18:50       0   39.7    63    3.2   188    -99     7.8   644.60  
 261   19:00       0   39.6    63    1.6   201    -99     3.9   644.60  
 261   19:10       0   39.7    62    2.9   257    -99     6.3   644.80  
 261   19:20       0   40.3    63    6.1   311    -99     8.6   644.80  
 261   19:30       0   39.9    65    3.6   291    -99     5.6   644.80  
 261   19:40       0   39.6    65    1.2    40    -99     4.2   644.80  
 261   19:50       0   39.5    65    3.8    63    -99     8.8   644.80  
 261   20:00       0   39.0    68    9.6    52    -99    15.8   644.80  
 261   20:10       0   38.3    72    8.7    57    -99    15.4   644.80  
 261   20:20       0   37.8    74    8.7    58    -99    13.4   644.80  
 261   20:30       0   37.2    77    8.6    58    -99    13.4   644.80  
 261   20:40       0   36.7    80    6.8    57    -99    11.4   644.80  
 261   20:50       0   36.4    82    6.3    51    -99    10.0   644.80  
 261   21:00       0   36.5    82    6.4    45    -99    11.2   644.80  
 261   21:10       0   36.4    82    2.7    54    -99     8.2   644.70  
 261   21:20       0   35.9    84    1.4    35    -99     3.7   644.70  
 261   21:30       0   36.4    82    2.4    40    -99     6.5   644.70  
 261   21:40       0   36.6    82    3.2    18    -99     5.6   644.70  
 261   21:50       0   36.5    81    1.7    22    -99     3.5   644.70  
 261   22:00       0   36.8    80    2.3    17    -99     6.1   644.70  
 261   22:10       0   37.0    78    1.5   210    -99     4.6   644.80  
 261   22:20       0   36.4    77    0.3   166    -99     2.9   644.80  
 261   22:30       0   35.4    79    0.0     0    -99     0.0   644.80  
 261   22:40       0   35.2    81    1.4    81    -99     4.7   644.80  
 261   22:50       0   35.0    84    2.7    52    -99     4.2   644.80  
 261   23:00       0   35.3    85    3.5    63    -99     5.9   644.80  
 261   23:10       0   35.0    86    2.9    76    -99     5.2   644.60  
 261   23:20       0   34.7    86    1.9    92    -99     3.9   644.60  
 261   23:30       0   34.5    86    2.9    85    -99     5.6   644.60  
 261   23:40       0   34.2    87    4.6    73    -99     6.4   644.60  
 261   23:50       0   34.1    88    4.2    64    -99     6.1   644.60  
 262    0:00       0   34.2    88    3.6    59    -99     5.9   644.60  
 262    0:10       0   33.7    89    2.7    70    -99     4.2   644.30  
 262    0:20       0   33.5    89    3.0    78    -99     4.9   644.30  
 262    0:30       0   33.4    90    2.2    66    -99     4.1   644.30  
 262    0:40       0   33.2    92    0.5    85    -99     2.1   644.30  
 262    0:50       0   32.8    93    0.8    62    -99     2.7   644.30  
 262    1:00       0   32.9    94    0.6    82    -99     2.9   644.30  
 262    1:10       0   32.4    95    0.1    71    -99     1.5   644.20  
 262    1:20       0   31.8    96    0.0    95    -99     0.3   644.20  
 262    1:30       0   31.7    97    0.9    71    -99     3.3   644.20  
 262    1:40       0   32.3    96    0.5    58    -99     2.2   644.20  
 262    1:50       0   32.6    96    0.9    44    -99     2.9   644.20  
 262    2:00       0   33.1    95    2.5    52    -99     6.9   644.20  
 262    2:10       0   33.5    93    3.2    48    -99     5.3   644.20  
 262    2:20       0   33.8    92    3.5    36    -99     7.9   644.20  
 262    2:30       0   33.8    92    1.7    38    -99     4.5   644.20  
 262    2:40       0   33.3    93    1.7    47    -99     3.8   644.20  
 262    2:50       0   33.3    93    2.9    50    -99     5.6   644.20  
 262    3:00       0   33.2    94    3.8    50    -99     5.6   644.20  
 262    3:10       0   32.9    95    2.8    37    -99     6.0   644.30  
 262    3:20       0   32.8    96    3.0    49    -99     7.5   644.30  
 262    3:30       0   32.6    96    3.9    57    -99     7.5   644.30  
 262    3:40       0   32.5    97    4.0    58    -99     6.2   644.30  
 262    3:50       0   31.9    98    3.4    57    -99     6.3   644.30  
 262    4:00       0   32.1    98    4.8    55    -99     8.0   644.30  
 262    4:10       0   32.1    98    5.3    60    -99     7.8   644.60  
 262    4:20       1   32.0    98    5.3    54    -99     7.9   644.60  
 262    4:30       4   31.7    98    4.5    63    -99     8.4   644.60  
 262    4:40      18   32.0    99    5.3    60    -99     8.2   644.60  
 262    4:50      43   32.9    98    4.7    64    -99     8.6   644.60  
 262    5:00      77   33.9    94    6.5    63    -99     9.9   644.60  
 262    5:10     120   34.7    93    5.4    65    -99     8.9   645.00  
 262    5:20     156   35.2    91    5.9    65    -99     7.8   645.00  
 262    5:30     185   35.7    90    6.6    62    -99     8.5   645.00  
 262    5:40     216   36.1    90    6.6    73    -99    10.4   645.00  
 262    5:50     250   36.6    87    7.7    74    -99    11.2   645.00  
 262    6:00     286   36.9    85    9.4    84    -99    15.1   645.00  
 262    6:10     326   37.2    85    9.2    78    -99    12.8   645.40  
 262    6:20     363   37.3    86    9.3    77    -99    13.1   645.40  
 262    6:30     462   37.8    85    9.1    77    -99    14.2   645.40  
 262    6:40     544   38.3    84   10.4    78    -99    15.3   645.40  
 262    6:50     544   38.8    82   10.7    85    -99    15.6   645.40  
 262    7:00     638   39.8    78   11.5    88    -99    17.5   645.40  
 262    7:10     626   39.9    79   11.7    82    -99    18.1   645.80  
 262    7:20     745   40.3    78   12.2    87    -99    17.2   645.80  
 262    7:30     659   40.6    77   12.3    90    -99    17.4   645.80  
 262    7:40     615   39.7    77   11.8    84    -99    18.0   645.80  
 262    7:50     688   39.9    72   12.4    89    -99    17.9   645.80  
 262    8:00     606   39.6    73   11.3    83    -99    17.0   645.80  
 262    8:10     346   38.4    73   11.3    81    -99    18.0   646.20  
 262    8:20     296   38.5    72   10.9    78    -99    18.0   646.20  
 262    8:30     481   38.6    72   11.8    78    -99    17.3   646.20  
 262    8:40     541   39.8    70   12.2    77    -99    19.4   646.20  
 262    8:50     486   39.1    70   10.6    85    -99    17.5   646.20  
 262    9:00     573   39.9    69   11.4    81    -99    16.6   646.20  
 262    9:10     615   40.3    69   11.8    72    -99    17.8   646.40  
 262    9:20     520   40.3    70   10.8    93    -99    16.9   646.40  
 262    9:30     682   40.7    67   11.9    77    -99    20.8   646.40  
 262    9:40     487   40.5    68   10.0    89    -99    18.6   646.40  
 262    9:50     655   41.6    67   11.7    99    -99    19.2   646.40  
 262   10:00     920   41.6    68   10.9    78    -99    16.3   646.40  

Return to Barcroft Research Lab graphs page.


Western Regional Climate Center,wrcc@dri.edu